In Rescue
 
Open Full Screen Window  High Contrast Mode
Wind Gusting 00 knots
08
June 22, 2024 10:47 PM EDT
Weather Information
Wind Direction
  200 °
Wind Speed
  08 kt (9 mph)
Wind Gust
  00 kt (0 mph)
Altimeter
29.78 in
Visibility
10 SM
Temperature
28° C
82° F
Dewpoint
18° C
64° F
Humidity
55%
Sky Condition
Scattered @ 12,000 ft
VFR

METAR KOEB 230247Z AUTO 20008KT 10SM SCT120 28/18 A2978 RMK AO2 T02790180

FAA Disclaimer: The data displayed is for advisory purposes only and is not to be used for flight planning or operations.